Taiyuan Wusu Airport
ZBYN : now visible

Airfield :











YOU CAN JOIN US ON...

 
LOGIN :

Register | Disclaimer

   EN    FR    IT 

 









Legend :    VFR   Marginal VFR   IFR   Intensive IFR   Very Intensive IFR
Visi :
Ceiling :
>= 8 km
>= 3000ft
5 to 8 km
1000 to 3000 ft
1500m to 5 km
500 to 1000 ft
800 to 1500m
200 to 500 ft
< 800m
< 200 ft
Symbols :   Thunderstorms  Fog  Heavy snow  Heavy precipitations  Wind > 20 kt






- Airport Elevation : 2575 ft
- IATA code : TYN


ZBYN - Taiyuan Wusu

CURRENT METAR :
  • 261530Z 03002MPS 350V080 CAVOK 18/06 Q1012 NOSIG

EXPIRED METARs :
  • 261500Z 06002MPS 030V120 CAVOK 18/07 Q1012 NOSIG
  • 261430Z 02002MPS 350V050 CAVOK 19/06 Q1012 NOSIG
  • 261400Z 02002MPS 340V090 CAVOK 20/06 Q1012 NOSIG
  • 261330Z 07002MPS 020V100 CAVOK 21/04 Q1011 NOSIG
  • 261300Z 02002MPS 340V060 CAVOK 21/05 Q1011 NOSIG
  • 261230Z 02003MPS 330V050 CAVOK 22/05 Q1011 NOSIG
  • 261200Z 35005MPS CAVOK 22/04 Q1011 NOSIG
  • 261130Z 34004MPS CAVOK 23/04 Q1010 NOSIG
  • 261100Z 35005MPS CAVOK 24/04 Q1010 NOSIG
  • 261030Z 35005MPS CAVOK 25/04 Q1010 NOSIG

TAF TAF ZBYN
Valid from the 26 at 12:00 until the 27 at 12:00 UTC


260900Z 2612/2712 36004MPS 5000 HZ NSC TX30/2707Z TN11/2621Z
ZBPE FIR / Asia



MET'MAP, your aeronautical weather chart ! - Copyright ORBIFLY December 2007 - Disclaimer

ORBIFLY MET'MAP TEAM :

Programming & Development : Alexandra Zaïnal
Original concept : Baudouin d'Aumeries
Technical & hardware support : Manuel Goepfert
Assistance : Marc-Olivier Méhu




SOURCES & CREDITS :

   NOAA       Earth
Advisory